Last 24 Hours

OV-Siberia 8700'

Hourly Data | America/Los_Angeles
as of 9/2/26 5:50 PM PDT
Date & Time Temp (°F) RH (%) Dew Pt (°F) Wet Bulb (°F) Wind Dir (°) Wind Spd (mph) Wind Gust (mph) WindChill (°F) Daily Min Temp (°F) Daily Max Temp (°F)
9/2/26 - 1700 40.6 83 35.8 38.2 N | 0 0.2 1.3 42.2 32.5 44.2
9/2/26 - 1600 42.1 77 35.5 38.7 N | 0 0.2 1.3 42.2 32.5 43.9
9/2/26 - 1500 43.1 73 35.2 39.2 N | 0 0.2 1.5 41.7 32.5 43.3
9/2/26 - 1400 40.2 81 34.9 37.6 N | 0 0.2 1.3 40.7 32.5 42.0
9/2/26 - 1300 39.4 81 34.0 36.7 N | 0 0.2 1.3 39.2 32.5 40.4
9/2/26 - 1200 38.1 88 34.8 36.4 N | 0 0.2 1.3 37.9 32.5 38.8
9/2/26 - 1100 37.6 88 34.2 35.9 N | 0 0.2 1.5 36.5 32.5 38.3
9/2/26 - 1000 36.0 92 34.0 35.0 N | 0 0.2 1.5 35.1 32.5 36.0
9/2/26 - 0900 34.3 95 33.0 33.7 N | 0 0.2 1.5 33.7 32.5 34.6
9/2/26 - 0800 33.2 96 32.1 32.7 N | 0 0.2 1.3 33.0 32.5 34.6
9/2/26 - 0700 32.8 96 31.7 32.3 N | 0 0.2 1.3 32.7 32.5 34.6
9/2/26 - 0600 32.6 95 31.2 32.0 N | 0 0.2 1.4 32.6 32.5 34.6
9/2/26 - 0500 32.7 88 29.7 31.3 N | 0 0.2 1.3 32.8 32.5 34.6
9/2/26 - 0400 32.7 90 30.1 31.6 N | 0 0.2 1.5 32.9 32.6 34.6
9/2/26 - 0300 33.2 87 29.8 31.7 N | 0 0.2 1.4 33.8 33.1 34.6
9/2/26 - 0200 34.3 76 27.6 31.3 N | 0 0.1 1.3 34.2 33.8 34.6
9/2/26 - 0100 33.9 79 28.1 31.3 N | 0 0.2 1.3 34.1 33.8 34.6
9/2/26 - 0000 34.4 75 27.3 31.3 N | 0 0.1 1.3 33.8 33.2 50.9
9/1/26 - 2300 33.9 88 30.8 32.5 N | 0 0.2 1.3 33.8 33.5 50.9
9/1/26 - 2200 33.9 89 31.0 32.6 N | 0 0.2 1.3 34.8 33.6 50.9
9/1/26 - 2100 35.7 84 31.3 33.7 N | 0 0.2 1.3 36.9 35.6 50.9
9/1/26 - 2000 38.0 73 30.3 34.5 N | 0 0.1 1.3 39.1 38.0 50.9
9/1/26 - 1900 40.7 67 30.6 35.9 N | 0 0.2 1.3 42.5 40.7 50.9
9/1/26 - 1800 43.4 58 29.6 36.9 N | 0 0.2 1.4 44.9 42.0 50.9
9/1/26 - 1700 44.8 53 28.9 37.3 N | 0 0.2 1.3 46.2 42.0 50.9
Max 44.8 96 35.8 39.2 - 0.2 1.5 46.2 42.0 50.9
Avg 36.9 82 31.7 34.4 - 0.2 1.4 37.1 - -
Min 32.6 53 27.3 31.3 - 0.1 1.3 32.6 32.5 34.6